createdAt,value
2019-04-25T00:00:51.847Z,26.91
2019-04-25T00:03:55.754Z,26.90
2019-04-25T00:06:59.283Z,26.89
2019-04-25T00:10:02.797Z,26.87
2019-04-25T00:13:06.880Z,26.86
2019-04-25T00:16:11.693Z,26.86
2019-04-25T00:19:15.412Z,26.85
2019-04-25T00:22:26.312Z,26.84
2019-04-25T00:25:57.811Z,26.84
2019-04-25T00:29:01.963Z,26.83
2019-04-25T00:32:06.622Z,26.82
2019-04-25T00:35:11.725Z,26.82
2019-04-25T00:38:15.402Z,26.82
2019-04-25T00:41:18.836Z,26.81
2019-04-25T00:44:22.442Z,26.82
2019-04-25T00:47:26.956Z,26.81
2019-04-25T00:50:31.916Z,26.80
2019-04-25T00:53:36.433Z,26.79
2019-04-25T00:56:39.846Z,26.79
2019-04-25T00:59:54.081Z,26.79
2019-04-25T01:02:57.783Z,26.80
2019-04-25T01:06:03.486Z,26.79
2019-04-25T01:09:12.473Z,26.79
2019-04-25T01:12:16.030Z,26.77
2019-04-25T01:15:21.387Z,26.77
2019-04-25T01:18:25.209Z,26.77
2019-04-25T01:21:28.798Z,26.76
2019-04-25T01:24:33.913Z,26.75
2019-04-25T01:27:37.576Z,26.75
2019-04-25T01:30:41.178Z,26.75
2019-04-25T01:33:44.677Z,26.75
2019-04-25T01:36:56.992Z,26.73
2019-04-25T01:40:26.820Z,26.74
2019-04-25T01:43:45.217Z,26.72
2019-04-25T01:46:48.649Z,26.72
2019-04-25T01:49:52.841Z,26.72
2019-04-25T01:52:57.497Z,26.70
2019-04-25T01:56:05.250Z,26.70
2019-04-25T01:59:07.168Z,26.71
2019-04-25T02:02:14.088Z,26.70
2019-04-25T02:05:17.561Z,26.70
2019-04-25T02:08:21.364Z,26.68
2019-04-25T02:11:43.953Z,26.68
2019-04-25T02:14:48.883Z,26.68
2019-04-25T02:17:57.175Z,26.66
2019-04-25T02:21:01.332Z,26.67
2019-04-25T02:24:05.701Z,26.66
2019-04-25T02:27:09.304Z,26.66
2019-04-25T02:30:15.500Z,26.64
2019-04-25T02:33:19.256Z,26.64
2019-04-25T02:36:24.688Z,26.64
2019-04-25T02:39:28.991Z,26.64
2019-04-25T02:42:34.343Z,26.64
2019-04-25T02:46:08.074Z,26.63
2019-04-25T02:49:36.885Z,26.63
2019-04-25T02:52:40.282Z,26.62
2019-04-25T02:55:44.806Z,26.61
2019-04-25T02:58:49.755Z,26.61
2019-04-25T03:01:54.129Z,26.60
2019-04-25T03:04:59.292Z,26.61
2019-04-25T03:08:08.004Z,26.60
2019-04-25T03:11:09.355Z,26.60
2019-04-25T03:14:14.685Z,26.59
2019-04-25T03:17:18.319Z,26.59
2019-04-25T03:20:40.167Z,26.58
2019-04-25T03:23:46.333Z,26.58
2019-04-25T03:26:49.250Z,26.57
2019-04-25T03:29:54.147Z,26.57
2019-04-25T03:32:58.752Z,26.57
2019-04-25T03:36:03.540Z,26.55
2019-04-25T03:39:08.695Z,26.57
2019-04-25T03:42:13.990Z,26.55
2019-04-25T03:45:17.693Z,26.56
2019-04-25T03:48:21.173Z,26.56
2019-04-25T03:51:24.674Z,26.56
2019-04-25T03:54:28.178Z,26.55
2019-04-25T03:57:33.095Z,26.53
2019-04-25T04:00:36.619Z,26.53
2019-04-25T04:03:40.127Z,26.53
2019-04-25T04:06:44.087Z,26.53
2019-04-25T04:09:47.637Z,26.52
2019-04-25T04:12:51.235Z,26.53
2019-04-25T04:15:54.738Z,26.51
2019-04-25T04:18:58.664Z,26.52
2019-04-25T04:22:16.251Z,26.51
2019-04-25T04:25:20.376Z,26.50
2019-04-25T04:28:23.786Z,26.50
2019-04-25T04:31:27.526Z,26.50
2019-04-25T04:34:31.015Z,26.49
2019-04-25T04:37:34.596Z,26.49
2019-04-25T04:40:38.097Z,26.49
2019-04-25T04:43:41.514Z,26.49
2019-04-25T04:46:45.131Z,26.50
2019-04-25T04:49:48.608Z,26.48
2019-04-25T04:52:53.922Z,26.48
2019-04-25T04:55:57.456Z,26.48
2019-04-25T04:59:00.971Z,26.48
2019-04-25T05:02:33.364Z,26.47
2019-04-25T05:05:51.240Z,26.48
2019-04-25T05:08:58.576Z,26.47
2019-04-25T05:12:04.081Z,26.46
2019-04-25T05:15:07.606Z,26.46
2019-04-25T05:18:11.504Z,26.46
2019-04-25T05:21:17.149Z,26.45
2019-04-25T05:24:20.879Z,26.47
2019-04-25T05:27:37.310Z,26.46
2019-04-25T05:30:37.629Z,26.47
2019-04-25T05:33:41.251Z,26.46
2019-04-25T05:36:45.002Z,26.46
2019-04-25T05:39:48.524Z,26.47
2019-04-25T05:43:00.861Z,26.45
2019-04-25T05:46:06.396Z,26.45
2019-04-25T05:49:09.884Z,26.44
2019-04-25T05:52:13.963Z,26.46
2019-04-25T05:55:19.883Z,26.45
2019-04-25T05:58:24.838Z,26.46
2019-04-25T06:01:30.136Z,26.44
2019-04-25T06:04:33.719Z,26.47
2019-04-25T06:07:37.258Z,26.45
2019-04-25T06:10:48.177Z,26.44
2019-04-25T06:14:01.418Z,26.46
2019-04-25T06:17:08.175Z,26.45
2019-04-25T06:20:13.442Z,26.44
2019-04-25T06:23:42.005Z,26.45
2019-04-25T06:26:55.636Z,26.46
2019-04-25T06:30:04.351Z,26.44
2019-04-25T06:33:08.948Z,26.45
2019-04-25T06:36:13.886Z,26.45
2019-04-25T06:39:17.529Z,26.45
2019-04-25T06:42:21.149Z,26.45
2019-04-25T06:45:34.504Z,26.45
2019-04-25T06:48:45.675Z,26.45
2019-04-25T06:51:50.251Z,26.46
2019-04-25T06:54:53.655Z,26.44
2019-04-25T06:58:08.880Z,26.45
2019-04-25T07:01:03.422Z,26.46
2019-04-25T07:04:07.228Z,26.46
2019-04-25T07:07:13.099Z,26.47
2019-04-25T07:10:15.935Z,26.49
2019-04-25T07:13:19.336Z,26.52
2019-04-25T07:16:24.201Z,26.52
2019-04-25T07:19:30.318Z,26.53
2019-04-25T07:22:35.306Z,26.57
2019-04-25T07:25:43.768Z,26.58
2019-04-25T07:28:59.091Z,26.57
2019-04-25T07:32:14.490Z,26.60
2019-04-25T07:35:18.158Z,26.59
2019-04-25T07:38:21.650Z,26.60
2019-04-25T07:41:26.009Z,26.62
2019-04-25T07:44:45.370Z,26.60
2019-04-25T07:47:35.455Z,26.61
2019-04-25T07:50:40.976Z,26.62
2019-04-25T07:53:44.479Z,26.65
2019-04-25T07:56:49.004Z,26.66
2019-04-25T07:59:53.718Z,26.65
2019-04-25T08:02:57.450Z,26.64
2019-04-25T08:06:03.073Z,26.66
2019-04-25T08:09:08.620Z,26.65
2019-04-25T08:12:13.342Z,26.65
2019-04-25T08:15:34.935Z,26.61
2019-04-25T08:18:38.977Z,26.64
2019-04-25T08:21:44.955Z,26.65
2019-04-25T08:24:48.515Z,26.68
2019-04-25T08:27:53.528Z,26.69
2019-04-25T08:30:58.439Z,26.72
2019-04-25T08:34:03.594Z,26.73
2019-04-25T08:37:17.342Z,26.73
2019-04-25T08:40:13.709Z,26.73
2019-04-25T08:43:17.362Z,26.76
2019-04-25T08:46:20.862Z,26.75
2019-04-25T08:49:44.286Z,26.78
2019-04-25T08:52:48.962Z,26.80
2019-04-25T08:56:03.949Z,26.80
2019-04-25T08:59:34.182Z,26.81
2019-04-25T09:02:50.653Z,26.80
2019-04-25T09:05:54.456Z,26.81
2019-04-25T09:08:57.861Z,26.81
2019-04-25T09:12:01.373Z,26.82
2019-04-25T09:15:06.002Z,26.84
2019-04-25T09:18:09.606Z,26.85
2019-04-25T09:21:13.783Z,26.87
2019-04-25T09:24:17.411Z,26.87
2019-04-25T09:27:23.500Z,26.87
2019-04-25T09:30:27.093Z,26.89
2019-04-25T09:33:30.596Z,26.91
2019-04-25T09:36:34.082Z,26.96
2019-04-25T09:39:53.754Z,26.96
2019-04-25T09:42:57.514Z,26.98
2019-04-25T09:46:13.152Z,26.96
2019-04-25T09:49:23.790Z,26.99
2019-04-25T09:52:27.424Z,26.99
2019-04-25T09:55:44.412Z,27.00
2019-04-25T09:59:04.747Z,27.00
2019-04-25T10:02:08.518Z,27.01
2019-04-25T10:05:11.920Z,27.01
2019-04-25T10:08:15.506Z,27.05
2019-04-25T10:11:18.957Z,27.08
2019-04-25T10:14:47.570Z,27.08
2019-04-25T10:17:50.333Z,27.06
2019-04-25T10:20:54.224Z,27.04
2019-04-25T10:23:57.749Z,27.05
2019-04-25T10:27:01.262Z,27.06
2019-04-25T10:30:16.854Z,27.07
2019-04-25T10:33:14.196Z,27.10
2019-04-25T10:36:17.697Z,27.10
2019-04-25T10:39:22.546Z,27.14
2019-04-25T10:42:26.122Z,27.16
2019-04-25T10:45:29.625Z,27.16
2019-04-25T10:48:34.393Z,27.17
2019-04-25T10:51:38.062Z,27.20
2019-04-25T10:54:41.559Z,27.22
2019-04-25T10:57:45.570Z,27.24
2019-04-25T11:00:51.353Z,27.26
2019-04-25T11:04:04.731Z,27.27
2019-04-25T11:07:08.281Z,27.29
2019-04-25T11:10:12.057Z,27.30
2019-04-25T11:13:15.601Z,27.30
2019-04-25T11:16:19.272Z,27.35
2019-04-25T11:19:23.875Z,27.38
2019-04-25T11:22:27.438Z,27.40
2019-04-25T11:25:30.902Z,27.41
2019-04-25T11:28:35.553Z,27.37
2019-04-25T11:31:47.381Z,27.39
2019-04-25T11:34:51.122Z,27.41
2019-04-25T11:37:56.913Z,27.40
2019-04-25T11:41:07.795Z,27.44
2019-04-25T11:44:11.371Z,27.46
2019-04-25T11:47:15.492Z,27.48
2019-04-25T11:50:20.219Z,27.50
2019-04-25T11:53:25.042Z,27.52
2019-04-25T11:56:28.659Z,27.54
2019-04-25T11:59:34.153Z,27.54
2019-04-25T12:02:37.735Z,27.55
2019-04-25T12:05:41.196Z,27.56
2019-04-25T12:08:46.573Z,27.58
2019-04-25T12:11:49.944Z,27.60
2019-04-25T12:14:54.355Z,27.62
2019-04-25T12:17:58.493Z,27.64
2019-04-25T12:21:02.001Z,27.64
2019-04-25T12:24:06.133Z,27.67
2019-04-25T12:27:09.642Z,27.68
2019-04-25T12:30:13.986Z,27.70
2019-04-25T12:33:20.964Z,27.72
2019-04-25T12:36:24.009Z,27.73
2019-04-25T12:39:27.844Z,27.77
2019-04-25T12:42:31.389Z,27.77
2019-04-25T12:45:47.557Z,27.81
2019-04-25T12:48:51.714Z,27.83
2019-04-25T12:51:55.218Z,27.83
2019-04-25T12:54:58.723Z,27.85
2019-04-25T12:58:03.509Z,27.87
2019-04-25T13:01:07.375Z,27.88
2019-04-25T13:04:10.876Z,27.87
2019-04-25T13:07:14.439Z,27.90
2019-04-25T13:10:17.936Z,27.91
2019-04-25T13:13:22.266Z,27.94
2019-04-25T13:16:26.989Z,27.95
2019-04-25T13:19:31.453Z,27.97
2019-04-25T13:22:40.472Z,27.98
2019-04-25T13:25:44.223Z,28.01
2019-04-25T13:29:21.291Z,28.00
2019-04-25T13:32:47.921Z,28.02
2019-04-25T13:35:57.640Z,28.07
2019-04-25T13:39:02.239Z,28.10
2019-04-25T13:42:06.747Z,28.10
2019-04-25T13:45:10.331Z,28.15
2019-04-25T13:48:13.899Z,28.20
2019-04-25T13:51:17.328Z,28.18
2019-04-25T13:54:20.926Z,28.22
2019-04-25T13:57:26.212Z,28.22
2019-04-25T14:00:30.838Z,28.21
2019-04-25T14:03:35.698Z,28.23
2019-04-25T14:06:39.358Z,28.25
2019-04-25T14:09:44.612Z,28.24
2019-04-25T14:12:48.338Z,28.27
2019-04-25T14:16:09.713Z,28.28
2019-04-25T14:19:44.648Z,28.29
2019-04-25T14:22:48.515Z,28.30
2019-04-25T14:25:52.990Z,28.33
2019-04-25T14:28:56.483Z,28.34
2019-04-25T14:31:59.984Z,28.35
2019-04-25T14:35:03.637Z,28.37
2019-04-25T14:38:07.204Z,28.39
2019-04-25T14:41:12.810Z,28.40
2019-04-25T14:44:16.236Z,28.42
2019-04-25T14:47:20.768Z,28.43
2019-04-25T14:50:25.516Z,28.45
2019-04-25T14:53:29.208Z,28.46
2019-04-25T14:56:43.102Z,28.48
2019-04-25T14:59:46.736Z,28.50
2019-04-25T15:02:50.275Z,28.50
2019-04-25T15:05:53.858Z,28.52
2019-04-25T15:08:57.362Z,28.52
2019-04-25T15:12:01.887Z,28.54
2019-04-25T15:15:06.510Z,28.54
2019-04-25T15:18:10.139Z,28.56
2019-04-25T15:21:13.634Z,28.57
2019-04-25T15:24:17.221Z,28.57
2019-04-25T15:27:20.823Z,28.58
2019-04-25T15:30:29.273Z,28.59
2019-04-25T15:33:33.135Z,28.59
2019-04-25T15:36:42.834Z,28.60
2019-04-25T15:39:58.089Z,28.61
2019-04-25T15:43:18.124Z,28.62
2019-04-25T15:46:25.983Z,28.64
2019-04-25T15:49:31.257Z,28.63
2019-04-25T15:52:34.857Z,28.61
2019-04-25T15:55:38.664Z,28.62
2019-04-25T15:58:44.909Z,28.62
2019-04-25T16:01:48.518Z,28.62
2019-04-25T16:04:52.000Z,28.60
2019-04-25T16:07:56.557Z,28.60
2019-04-25T16:11:00.017Z,28.58
2019-04-25T16:14:03.407Z,28.59
2019-04-25T16:17:07.038Z,28.58
2019-04-25T16:20:10.576Z,28.59
2019-04-25T16:23:14.080Z,28.57
2019-04-25T16:26:18.889Z,28.56
2019-04-25T16:29:23.262Z,28.55
2019-04-25T16:32:26.813Z,28.54
2019-04-25T16:35:33.502Z,28.54
2019-04-25T16:38:37.039Z,28.50
2019-04-25T16:41:44.046Z,28.50
2019-04-25T16:44:50.516Z,28.49
2019-04-25T16:47:56.719Z,28.47
2019-04-25T16:51:00.349Z,28.47
2019-04-25T16:54:06.040Z,28.47
2019-04-25T16:57:12.220Z,28.46
2019-04-25T17:00:39.031Z,28.42
2019-04-25T17:03:44.218Z,28.41
2019-04-25T17:06:48.720Z,28.39
2019-04-25T17:09:52.329Z,28.37
2019-04-25T17:12:55.905Z,28.38
2019-04-25T17:16:10.612Z,28.34
2019-04-25T17:19:18.684Z,28.35
2019-04-25T17:22:22.194Z,28.34
2019-04-25T17:25:26.085Z,28.31
2019-04-25T17:28:31.397Z,28.31
2019-04-25T17:32:02.098Z,28.31
2019-04-25T17:35:23.112Z,28.29
2019-04-25T17:38:48.932Z,28.25
2019-04-25T17:41:52.423Z,28.23
2019-04-25T17:44:55.921Z,28.22
2019-04-25T17:47:59.449Z,28.21
2019-04-25T17:51:02.940Z,28.22
2019-04-25T17:54:06.920Z,28.18
2019-04-25T17:57:11.366Z,28.19
2019-04-25T18:00:23.089Z,28.17
2019-04-25T18:03:27.659Z,28.19
2019-04-25T18:06:33.285Z,28.16
2019-04-25T18:09:38.681Z,28.15
2019-04-25T18:12:42.275Z,28.14
2019-04-25T18:16:16.774Z,28.13
2019-04-25T18:19:25.196Z,28.14
2019-04-25T18:22:56.945Z,28.12
2019-04-25T18:26:07.886Z,28.11
2019-04-25T18:29:12.844Z,28.10
2019-04-25T18:32:16.430Z,28.11
2019-04-25T18:35:25.131Z,28.08
2019-04-25T18:38:37.549Z,28.03
2019-04-25T18:41:46.670Z,28.03
2019-04-25T18:44:50.230Z,28.00
2019-04-25T18:47:53.838Z,28.00
2019-04-25T18:50:57.376Z,27.99
2019-04-25T18:54:39.436Z,28.00
2019-04-25T18:57:47.288Z,27.97
2019-04-25T19:01:05.515Z,27.96
2019-04-25T19:04:33.948Z,27.99
2019-04-25T19:07:43.540Z,27.99
2019-04-25T19:10:47.177Z,27.98
2019-04-25T19:13:51.811Z,27.98
2019-04-25T19:16:55.295Z,27.96
2019-04-25T19:19:58.798Z,27.97
2019-04-25T19:23:04.348Z,27.97
2019-04-25T19:26:08.861Z,27.97
2019-04-25T19:29:12.393Z,27.95
2019-04-25T19:32:15.887Z,27.98
2019-04-25T19:35:19.377Z,27.95
2019-04-25T19:38:22.879Z,27.96
2019-04-25T19:41:32.435Z,27.97
2019-04-25T19:44:36.023Z,27.92
2019-04-25T19:47:41.356Z,27.92
2019-04-25T19:50:45.900Z,27.92
2019-04-25T19:53:49.409Z,27.91
2019-04-25T19:56:52.815Z,27.91
2019-04-25T19:59:56.403Z,27.91
2019-04-25T20:03:09.447Z,27.91
2019-04-25T20:06:34.889Z,27.89
2019-04-25T20:10:03.565Z,27.90
2019-04-25T20:13:08.170Z,27.90
2019-04-25T20:16:12.130Z,27.89
2019-04-25T20:19:15.560Z,27.86
2019-04-25T20:22:19.071Z,27.87
2019-04-25T20:25:22.592Z,27.88
2019-04-25T20:28:26.088Z,27.89
2019-04-25T20:31:29.655Z,27.88
2019-04-25T20:34:33.075Z,27.91
2019-04-25T20:37:36.577Z,27.88
2019-04-25T20:40:40.077Z,27.87
2019-04-25T20:43:43.582Z,27.83
2019-04-25T20:46:47.080Z,27.82
2019-04-25T20:49:51.503Z,27.83
2019-04-25T20:52:55.079Z,27.84
2019-04-25T20:55:58.508Z,27.84
2019-04-25T20:59:01.996Z,27.83
2019-04-25T21:02:07.431Z,27.78
2019-04-25T21:05:10.849Z,27.79
2019-04-25T21:08:14.244Z,27.81
2019-04-25T21:11:17.676Z,27.80
2019-04-25T21:14:27.004Z,27.81
2019-04-25T21:17:36.161Z,27.79
2019-04-25T21:20:39.616Z,27.79
2019-04-25T21:23:43.032Z,27.77
2019-04-25T21:26:46.632Z,27.78
2019-04-25T21:29:50.023Z,27.77
2019-04-25T21:32:55.546Z,27.76
2019-04-25T21:36:05.127Z,27.76
2019-04-25T21:39:14.983Z,27.75
2019-04-25T21:42:35.134Z,27.76
2019-04-25T21:45:38.768Z,27.75
2019-04-25T21:48:42.461Z,27.74
2019-04-25T21:51:45.994Z,27.73
2019-04-25T21:54:49.461Z,27.71
2019-04-25T21:57:53.597Z,27.72
2019-04-25T22:01:15.659Z,27.71
2019-04-25T22:04:19.114Z,27.72
2019-04-25T22:07:23.055Z,27.70
2019-04-25T22:10:28.799Z,27.69
2019-04-25T22:13:32.322Z,27.68
2019-04-25T22:16:37.099Z,27.68
2019-04-25T22:19:40.934Z,27.67
2019-04-25T22:22:44.858Z,27.67
2019-04-25T22:25:48.339Z,27.68
2019-04-25T22:28:52.046Z,27.66
2019-04-25T22:32:08.984Z,27.66
2019-04-25T22:35:20.461Z,27.65
2019-04-25T22:38:25.079Z,27.64
2019-04-25T22:41:29.479Z,27.65
2019-04-25T22:44:34.431Z,27.65
2019-04-25T22:47:38.157Z,27.64
2019-04-25T22:50:41.646Z,27.63
2019-04-25T22:53:46.670Z,27.63
2019-04-25T22:56:50.169Z,27.61
2019-04-25T22:59:53.784Z,27.61
2019-04-25T23:03:05.375Z,27.61
2019-04-25T23:06:09.651Z,27.62
2019-04-25T23:09:13.551Z,27.60
2019-04-25T23:12:17.045Z,27.59
2019-04-25T23:15:20.688Z,27.60
2019-04-25T23:18:24.702Z,27.58
2019-04-25T23:21:28.292Z,27.58
2019-04-25T23:24:34.537Z,27.58
2019-04-25T23:28:03.669Z,27.58
2019-04-25T23:31:15.141Z,27.57
2019-04-25T23:34:18.743Z,27.55
2019-04-25T23:37:22.320Z,27.55
2019-04-25T23:40:25.817Z,27.55
2019-04-25T23:43:29.751Z,27.55
2019-04-25T23:46:33.310Z,27.56
2019-04-25T23:49:36.981Z,27.53
2019-04-25T23:52:40.746Z,27.52
2019-04-25T23:55:44.176Z,27.54
2019-04-25T23:58:47.618Z,27.53
